Time;durP1;ratioP1;P1;durP2;ratioP2;P2;SDS_P1;SDS_P2;PMS_P1;PMS_P2;Temp;Humidity;BMP_temperature;BMP_pressure;BME280_temperature;BME280_humidity;BME280_pressure;Samples;Min_cycle;Max_cycle;Signal;HPM_P1;HPM_P2
2020/12/25 00:00:07;;;;;;;4.08;2.67;;;;;;;4.17;81.64;99230.93;1709408;81;25813;-87
2020/12/25 00:02:36;;;;;;;4.75;2.72;;;;;;;4.16;81.85;99230.13;1742836;80;25983;-86
2020/12/25 00:05:03;;;;;;;4.65;2.65;;;;;;;4.18;81.77;99239.84;1759997;79;26509;-86
2020/12/25 00:07:29;;;;;;;2.92;2.40;;;;;;;4.18;81.68;99237.75;1773638;78;26291;-86
2020/12/25 00:09:56;;;;;;;3.33;2.40;;;;;;;4.16;81.44;99241.77;1753982;79;25832;-87
2020/12/25 00:12:22;;;;;;;3.92;2.40;;;;;;;4.16;81.07;99232.71;1785049;78;25721;-86
2020/12/25 00:14:49;;;;;;;3.67;2.37;;;;;;;4.16;81.41;99237.08;1782255;78;25720;-87
2020/12/25 00:17:15;;;;;;;5.05;2.98;;;;;;;4.17;81.44;99240.82;1737228;80;26456;-86
2020/12/25 00:19:41;;;;;;;6.50;3.22;;;;;;;4.20;81.58;99242.27;1785351;80;25734;-86
2020/12/25 00:22:08;;;;;;;3.92;3.10;;;;;;;4.21;81.52;99249.08;1779442;78;25764;-87
2020/12/25 00:24:34;;;;;;;5.42;3.12;;;;;;;4.21;81.48;99244.71;1784713;78;25753;-87
2020/12/25 00:27:01;;;;;;;7.30;3.62;;;;;;;4.19;81.61;99252.28;1777646;78;26768;-86
2020/12/25 00:29:27;;;;;;;3.70;3.10;;;;;;;4.18;81.71;99257.14;1788083;78;25726;-87
2020/12/25 00:31:54;;;;;;;5.55;3.50;;;;;;;4.15;81.74;99252.27;1763215;80;25988;-86
2020/12/25 00:34:20;;;;;;;4.75;3.37;;;;;;;4.13;81.86;99260.66;1775202;78;26485;-87
2020/12/25 00:36:47;;;;;;;4.58;3.02;;;;;;;4.12;81.96;99267.61;1782826;78;26431;-88
2020/12/25 00:39:17;;;;;;;5.65;3.77;;;;;;;4.13;82.10;99271.80;1760735;80;26131;-88
2020/12/25 00:41:48;;;;;;;;;;;;;;;4.12;82.15;99268.90;1766027;79;26289;-86
2020/12/25 00:44:15;;;;;;;6.72;3.80;;;;;;;4.13;82.13;99273.58;1756998;80;25908;-89
2020/12/25 00:46:42;;;;;;;4.25;3.22;;;;;;;4.10;82.21;99275.98;1779437;78;25841;-87
2020/12/25 00:49:13;;;;;;;4.53;3.30;;;;;;;4.12;82.30;99287.00;1778130;78;26852;-88
2020/12/25 00:51:39;;;;;;;;;;;;;;;4.12;82.37;99290.04;1786492;78;25763;-89
2020/12/25 00:54:06;;;;;;;5.45;3.70;;;;;;;4.12;82.45;99288.30;1784190;78;25751;-89
2020/12/25 00:56:40;;;;;;;6.20;3.85;;;;;;;4.10;82.48;99294.57;1721225;81;26029;-88
2020/12/25 00:59:07;;;;;;;6.40;3.77;;;;;;;4.09;82.60;99301.52;1723011;81;25887;-88
2020/12/25 01:01:37;;;;;;;5.97;3.85;;;;;;;4.06;82.75;99302.28;1752375;80;26570;-88
2020/12/25 01:04:02;;;;;;;6.22;3.60;;;;;;;4.03;82.92;99303.39;1747981;80;25855;-88
2020/12/25 01:06:28;;;;;;;6.08;4.00;;;;;;;4.02;83.05;99308.24;1697130;82;26610;-88
2020/12/25 01:08:55;;;;;;;4.22;3.02;;;;;;;4.03;83.14;99307.75;1756535;80;25860;-86
2020/12/25 01:11:27;;;;;;;5.75;3.50;;;;;;;4.03;83.19;99309.05;1703747;82;25785;-87
2020/12/25 01:13:53;;;;;;;5.50;3.92;;;;;;;4.02;83.32;99313.90;1728527;82;25792;-87
2020/12/25 01:16:20;;;;;;;6.00;3.95;;;;;;;4.02;83.58;99321.17;1729548;81;25911;-88
2020/12/25 01:18:47;;;;;;;5.45;3.92;;;;;;;3.99;83.58;99322.77;1734462;81;25704;-88
2020/12/25 01:21:15;;;;;;;5.97;4.28;;;;;;;4.01;83.77;99327.31;1707959;82;26561;-88
2020/12/25 01:23:42;;;;;;;6.80;4.37;;;;;;;3.97;83.80;99324.19;1755075;80;25688;-88
2020/12/25 01:26:09;;;;;;;5.03;3.85;;;;;;;3.95;83.92;99344.20;1754361;80;26807;-87
2020/12/25 01:28:37;;;;;;;5.10;3.80;;;;;;;3.84;84.46;99325.52;1749836;80;25716;-87
2020/12/25 01:31:04;;;;;;;8.03;4.90;;;;;;;3.88;84.50;99335.42;1752144;80;25915;-87
2020/12/25 01:33:33;;;;;;;5.42;4.10;;;;;;;3.85;84.54;99349.94;1764968;80;25837;-87
2020/12/25 01:36:01;;;;;;;7.10;4.37;;;;;;;3.82;84.82;99354.11;1780733;78;25754;-88
2020/12/25 01:38:28;;;;;;;6.70;4.22;;;;;;;3.81;84.95;99360.22;1781964;78;25790;-88
2020/12/25 01:40:54;;;;;;;6.33;4.00;;;;;;;3.80;85.17;99355.22;1782692;78;25819;-87
2020/12/25 01:43:21;;;;;;;8.83;5.10;;;;;;;3.80;85.51;99364.27;1784393;78;25773;-88
2020/12/25 01:45:47;;;;;;;7.35;4.58;;;;;;;3.77;85.35;99366.17;1781318;78;25772;-88
2020/12/25 01:48:14;;;;;;;8.28;4.95;;;;;;;3.79;85.67;99372.47;1785119;78;26650;-88
2020/12/25 01:50:41;;;;;;;8.60;4.45;;;;;;;3.78;85.76;99361.81;1784481;78;25737;-87
2020/12/25 01:53:10;;;;;;;8.20;5.37;;;;;;;3.72;85.84;99360.63;1769588;78;25991;-87
2020/12/25 01:55:39;;;;;;;8.40;5.28;;;;;;;3.73;85.83;99364.83;1702824;82;25831;-88
2020/12/25 01:58:07;;;;;;;6.45;4.47;;;;;;;3.77;85.82;99371.83;1695998;82;25870;-86
2020/12/25 02:00:34;;;;;;;8.43;5.47;;;;;;;3.80;85.92;99368.95;1690860;82;25895;-86
2020/12/25 02:03:00;;;;;;;7.75;5.25;;;;;;;3.77;86.06;99371.83;1717105;81;25732;-88
2020/12/25 02:05:27;;;;;;;8.43;5.62;;;;;;;3.76;86.11;99371.47;1702162;82;26766;-87
2020/12/25 02:07:56;;;;;;;7.03;4.60;;;;;;;3.77;86.10;99373.12;1723766;82;26540;-87
2020/12/25 02:10:23;;;;;;;8.68;4.70;;;;;;;3.76;86.35;99368.44;1725670;81;26481;-87
2020/12/25 02:12:51;;;;;;;7.42;4.65;;;;;;;3.75;86.06;99368.08;1737491;81;25919;-86
2020/12/25 02:15:18;;;;;;;5.67;3.77;;;;;;;3.75;85.95;99365.50;1728578;81;26878;-88
2020/12/25 02:17:46;;;;;;;7.03;4.40;;;;;;;3.75;85.91;99369.86;1719564;81;25808;-87
2020/12/25 02:20:13;;;;;;;6.45;3.72;;;;;;;3.76;85.77;99382.64;1720260;81;26180;-87
2020/12/25 02:22:40;;;;;;;7.75;3.90;;;;;;;3.76;85.48;99394.73;1720921;81;25894;-87
2020/12/25 02:25:07;;;;;;;6.62;4.20;;;;;;;3.80;85.64;99405.61;1717934;81;25911;-87
2020/12/25 02:27:34;;;;;;;8.25;4.37;;;;;;;3.82;85.56;99413.55;1725511;82;25841;-87
2020/12/25 02:30:03;;;;;;;5.70;3.87;;;;;;;3.83;85.43;99415.66;1720914;81;25914;-87
2020/12/25 02:32:30;;;;;;;7.28;4.55;;;;;;;3.82;85.35;99416.14;1720083;81;25960;-88
2020/12/25 02:34:56;;;;;;;5.10;3.77;;;;;;;3.80;85.36;99419.83;1722683;81;25786;-88
2020/12/25 02:37:23;;;;;;;4.58;3.02;;;;;;;3.80;85.47;99427.09;1676520;83;25846;-88
2020/12/25 02:39:49;;;;;;;4.50;3.17;;;;;;;3.80;85.53;99427.58;1724410;81;26597;-88
2020/12/25 02:42:15;;;;;;;5.67;3.70;;;;;;;3.80;85.54;99435.34;1727847;82;25865;-88
2020/12/25 02:44:43;;;;;;;5.35;3.33;;;;;;;3.84;85.85;99439.24;1715348;81;26945;-88
2020/12/25 02:47:11;;;;;;;3.95;3.50;;;;;;;3.84;85.85;99439.24;1730064;81;25848;-88
2020/12/25 02:49:39;;;;;;;5.87;3.72;;;;;;;3.86;85.67;99439.92;1722415;82;25893;-88
2020/12/25 02:52:06;;;;;;;4.28;3.15;;;;;;;3.86;85.69;99438.14;1729799;81;25820;-87
2020/12/25 02:54:33;;;;;;;5.83;3.50;;;;;;;3.87;85.75;99441.53;1750263;80;25841;-86
2020/12/25 02:56:59;;;;;;;4.85;3.70;;;;;;;3.89;85.74;99445.60;1758359;79;26016;-85
2020/12/25 02:59:26;;;;;;;4.92;3.65;;;;;;;3.90;85.73;99451.58;1765901;79;25763;-88
2020/12/25 03:01:54;;;;;;;6.12;3.60;;;;;;;3.90;85.67;99444.66;1771473;79;25904;-88
2020/12/25 03:04:21;;;;;;;5.37;4.17;;;;;;;3.93;85.67;99455.20;1728151;81;25788;-87
2020/12/25 03:06:47;;;;;;;6.00;3.72;;;;;;;3.93;85.68;99465.53;1760841;79;25739;-88
2020/12/25 03:09:14;;;;;;;5.15;2.85;;;;;;;3.91;85.67;99467.44;1758337;79;25841;-88
2020/12/25 03:11:41;;;;;;;4.85;2.92;;;;;;;3.90;85.68;99470.52;1704530;81;25826;-88
2020/12/25 03:14:07;;;;;;;4.90;3.60;;;;;;;3.86;85.69;99470.94;1774002;80;25871;-88
2020/12/25 03:16:34;;;;;;;4.72;3.52;;;;;;;3.93;85.68;99475.87;1737182;81;26344;-87
2020/12/25 03:19:00;;;;;;;3.85;2.90;;;;;;;3.95;85.63;99479.91;1761643;80;26353;-87
2020/12/25 03:21:27;;;;;;;5.22;3.33;;;;;;;3.95;85.61;99490.26;1762161;80;25762;-87
2020/12/25 03:23:53;;;;;;;4.45;3.10;;;;;;;3.88;85.65;99479.37;1746937;80;25793;-88
2020/12/25 03:26:20;;;;;;;3.87;2.85;;;;;;;3.94;85.72;99491.70;1731329;81;25851;-89
2020/12/25 03:28:46;;;;;;;5.15;3.10;;;;;;;3.96;85.79;99497.56;1733572;81;25765;-88
2020/12/25 03:31:13;;;;;;;5.45;3.47;;;;;;;3.96;85.81;99502.24;1771357;80;26641;-88
2020/12/25 03:33:39;;;;;;;4.40;3.27;;;;;;;3.97;85.84;99498.69;1765012;80;25648;-87
2020/12/25 03:36:06;;;;;;;6.10;3.70;;;;;;;3.97;86.03;99496.59;1762519;80;26311;-88
2020/12/25 03:38:32;;;;;;;6.08;3.55;;;;;;;3.94;85.97;99500.76;1759203;80;26454;-87
2020/12/25 03:41:02;;;;;;;5.30;3.17;;;;;;;3.92;86.46;99509.12;1769681;79;25774;-87
2020/12/25 03:43:29;;;;;;;5.60;3.70;;;;;;;3.87;86.22;99508.25;1759129;79;25802;-87
2020/12/25 03:45:55;;;;;;;5.05;3.20;;;;;;;3.88;86.33;99527.19;1771600;80;25815;-87
2020/12/25 03:48:21;;;;;;;5.15;3.92;;;;;;;3.87;86.45;99513.91;1724363;82;26519;-88
2020/12/25 03:50:48;;;;;;;5.37;3.45;;;;;;;3.87;86.50;99521.66;1763477;80;25867;-88
2020/12/25 03:53:14;;;;;;;4.28;3.00;;;;;;;3.88;86.56;99528.00;1753733;79;26306;-87
2020/12/25 03:55:41;;;;;;;4.03;3.02;;;;;;;3.88;86.59;99528.48;1733894;81;25917;-86
2020/12/25 03:58:07;;;;;;;5.72;3.67;;;;;;;3.86;86.84;99529.09;1725036;81;25831;-88
2020/12/25 04:00:34;;;;;;;4.40;3.22;;;;;;;3.82;86.71;99534.19;1732926;81;25734;-89
2020/12/25 04:03:00;;;;;;;4.60;3.22;;;;;;;3.88;86.80;99533.16;1725670;81;26064;-88
2020/12/25 04:05:27;;;;;;;4.65;3.65;;;;;;;3.93;86.78;99545.19;1711252;82;25871;-88
2020/12/25 04:07:53;;;;;;;5.22;3.72;;;;;;;3.91;86.79;99537.23;1722797;81;25946;-88
2020/12/25 04:10:20;;;;;;;8.30;3.60;;;;;;;3.85;86.82;99532.16;1729278;81;25763;-89
2020/12/25 04:12:46;;;;;;;6.03;3.65;;;;;;;3.89;86.97;99536.56;1732316;81;25944;-87
2020/12/25 04:15:13;;;;;;;5.47;3.62;;;;;;;3.75;86.81;99527.50;1735215;81;25705;-88
2020/12/25 04:17:39;;;;;;;5.65;3.42;;;;;;;3.75;86.81;99527.50;1726939;81;25908;-87
2020/12/25 04:20:06;;;;;;;4.83;3.50;;;;;;;3.87;87.12;99546.22;1731035;81;25735;-88
2020/12/25 04:22:32;;;;;;;4.85;3.58;;;;;;;3.72;87.06;99530.38;1729905;81;25841;-86
2020/12/25 04:24:58;;;;;;;6.55;3.98;;;;;;;3.83;87.11;99543.11;1725421;81;25815;-87
2020/12/25 04:27:25;;;;;;;5.28;3.95;;;;;;;3.85;87.20;99542.98;1722449;81;25691;-87
2020/12/25 04:29:51;;;;;;;5.28;3.37;;;;;;;3.86;87.33;99538.95;1722200;81;26475;-87
2020/12/25 04:32:18;;;;;;;6.45;4.17;;;;;;;3.86;87.77;99549.28;1722602;81;25701;-87
2020/12/25 04:34:44;;;;;;;5.42;4.00;;;;;;;3.83;87.34;99550.87;1724864;81;25673;-87
2020/12/25 04:37:11;;;;;;;4.15;3.45;;;;;;;3.82;87.60;99556.16;1732243;81;25758;-87
2020/12/25 04:39:38;;;;;;;5.37;3.60;;;;;;;3.80;87.85;99560.69;1732492;81;25695;-88
2020/12/25 04:42:04;;;;;;;6.92;4.22;;;;;;;3.78;87.96;99552.58;1721122;81;25817;-87
2020/12/25 04:44:31;;;;;;;6.85;3.83;;;;;;;3.77;87.97;99553.54;1726929;81;25817;-88
2020/12/25 04:47:11;;;;;;;5.40;3.95;;;;;;;3.78;88.02;99551.77;1733029;81;25339;-89
2020/12/25 04:49:38;;;;;;;6.25;3.77;;;;;;;3.78;88.09;99555.16;1729109;81;25714;-88
2020/12/25 04:52:06;;;;;;;7.03;4.12;;;;;;;3.78;88.14;99557.74;1728602;81;25866;-86
2020/12/25 04:54:32;;;;;;;6.28;3.55;;;;;;;3.80;88.27;99560.69;1739105;79;26538;-85
2020/12/25 04:56:59;;;;;;;5.50;4.22;;;;;;;3.80;88.36;99552.45;1757268;79;25929;-87
2020/12/25 04:59:29;;;;;;;7.92;4.95;;;;;;;3.79;88.29;99552.09;1756756;79;25858;-87
2020/12/25 05:02:01;;;;;;;6.15;4.05;;;;;;;3.81;88.28;99551.96;1753177;79;26413;-87
2020/12/25 05:04:28;;;;;;;6.28;4.78;;;;;;;3.81;88.27;99553.25;1758943;81;25723;-88
2020/12/25 05:06:55;;;;;;;4.80;3.52;;;;;;;3.82;88.35;99553.13;1754451;79;25685;-88
2020/12/25 05:09:25;;;;;;;6.20;4.20;;;;;;;3.83;88.41;99560.40;1730994;79;25703;-87
2020/12/25 05:11:57;;;;;;;6.62;4.30;;;;;;;3.81;88.41;99570.05;1767223;79;25693;-86
2020/12/25 05:14:29;;;;;;;4.85;3.92;;;;;;;3.81;88.45;99569.57;1752257;79;25767;-87
2020/12/25 05:16:59;;;;;;;5.28;3.55;;;;;;;3.81;88.45;99581.20;1753887;79;25871;-88
2020/12/25 05:19:31;;;;;;;5.33;3.67;;;;;;;3.81;88.38;99580.39;1754957;79;25821;-88
2020/12/25 05:22:00;;;;;;;5.28;3.60;;;;;;;3.81;88.43;99581.69;1756649;79;26514;-88
2020/12/25 05:24:37;;;;;;;4.55;3.65;;;;;;;3.79;88.60;99585.69;1756568;79;25794;-87
2020/12/25 05:27:12;;;;;;;5.00;3.62;;;;;;;3.80;88.67;99592.98;1757867;79;26525;-88
2020/12/25 05:29:40;;;;;;;4.70;3.47;;;;;;;3.81;88.63;99595.41;1754250;79;25780;-87
2020/12/25 05:32:07;;;;;;;5.95;3.80;;;;;;;3.81;88.73;99598.00;1758913;79;26383;-87
2020/12/25 05:34:36;;;;;;;5.25;3.67;;;;;;;3.80;88.85;99598.97;1762246;79;26238;-88
2020/12/25 05:37:04;;;;;;;3.90;3.25;;;;;;;3.77;88.78;99603.94;1766467;79;25811;-86
2020/12/25 05:39:34;;;;;;;3.92;3.27;;;;;;;3.75;89.17;99609.72;1755337;79;26462;-87
2020/12/25 05:42:06;;;;;;;3.45;2.75;;;;;;;3.74;89.05;99617.14;1735278;82;25993;-87
2020/12/25 05:44:47;;;;;;;4.95;3.35;;;;;;;3.75;89.12;99618.76;1754862;79;26944;-87
2020/12/25 05:47:17;;;;;;;5.42;2.95;;;;;;;3.76;88.90;99628.16;1710338;82;26772;-86
2020/12/25 05:49:45;;;;;;;6.75;3.50;;;;;;;3.77;88.79;99628.49;1754378;79;25793;-88
2020/12/25 05:52:15;;;;;;;3.47;2.87;;;;;;;3.78;88.72;99638.34;1734385;80;25835;-88
2020/12/25 05:54:47;;;;;;;6.42;3.42;;;;;;;3.80;88.81;99647.27;1715688;82;25542;-87
2020/12/25 05:57:15;;;;;;;4.05;2.72;;;;;;;3.78;88.99;99640.93;1788465;78;25710;-88
2020/12/25 05:59:45;;;;;;;4.12;3.00;;;;;;;3.76;88.90;99652.72;1790191;78;25483;-89
2020/12/25 06:02:12;;;;;;;;;;;;;;;3.75;88.90;99651.06;1793369;78;25856;-86
2020/12/25 06:04:39;;;;;;;3.60;2.65;;;;;;;3.76;88.95;99665.64;1790641;78;25834;-87
2020/12/25 06:07:08;;;;;;;3.58;2.87;;;;;;;3.74;88.92;99674.48;1780466;78;26277;-88
2020/12/25 06:09:39;;;;;;;5.72;3.10;;;;;;;3.74;88.83;99675.77;1784243;78;27239;-88
2020/12/25 06:12:05;;;;;;;4.45;2.83;;;;;;;3.78;88.87;99686.16;1793199;78;26362;-88
2020/12/25 06:14:32;;;;;;;4.12;2.90;;;;;;;3.78;88.83;99689.55;1782741;78;25801;-87
2020/12/25 06:17:14;;;;;;;5.42;3.30;;;;;;;3.81;88.75;99689.75;1785186;78;25840;-88
2020/12/25 06:20:03;;;;;;;4.30;3.50;;;;;;;3.77;88.72;99694.39;1784966;78;26400;-86
2020/12/25 06:22:38;;;;;;;5.03;2.70;;;;;;;3.72;88.67;99693.17;1788899;78;25819;-87
2020/12/25 06:25:11;;;;;;;4.40;3.05;;;;;;;3.75;88.63;99707.92;1790079;78;25882;-88
2020/12/25 06:27:50;;;;;;;4.20;3.62;;;;;;;3.74;88.75;99710.18;1786040;78;25793;-88
2020/12/25 06:30:30;;;;;;;7.55;3.08;;;;;;;3.74;88.61;99714.54;1783765;78;25947;-88
2020/12/25 06:32:58;;;;;;;;;;;;;;;3.72;88.51;99712.08;1783630;78;25739;-87
2020/12/25 06:35:37;;;;;;;5.83;3.30;;;;;;;3.75;88.58;99715.67;1788964;78;25715;-86
2020/12/25 06:38:14;;;;;;;7.78;4.55;;;;;;;3.76;88.50;99717.78;1785185;78;25843;-87
2020/12/25 06:40:42;;;;;;;8.03;4.10;;;;;;;3.75;88.38;99722.62;1783379;78;25779;-87
2020/12/25 06:43:18;;;;;;;9.35;4.00;;;;;;;3.72;88.30;99733.23;1780598;78;25583;-86
2020/12/25 06:45:59;;;;;;;6.45;3.33;;;;;;;3.72;88.32;99730.66;1784287;78;25492;-87
2020/12/25 06:48:29;;;;;;;6.90;3.52;;;;;;;3.68;88.27;99740.45;1766088;78;26298;-87
2020/12/25 06:50:57;;;;;;;;;;;;;;;3.70;88.27;99751.93;1789797;78;25670;-88
2020/12/25 06:53:38;;;;;;;7.42;4.75;;;;;;;3.68;88.25;99753.38;1787940;78;25848;-86
2020/12/25 06:56:17;;;;;;;8.80;4.17;;;;;;;3.70;88.23;99757.09;1771293;79;25734;-87
2020/12/25 06:58:51;;;;;;;8.70;4.25;;;;;;;3.69;88.10;99756.29;1730670;80;25949;-87
2020/12/25 07:01:40;;;;;;;7.50;3.83;;;;;;;3.68;87.99;99761.12;1727490;80;25884;-88
2020/12/25 07:04:06;;;;;;;5.70;3.85;;;;;;;3.67;87.86;99763.35;1742644;79;25764;-87
2020/12/25 07:06:33;;;;;;;7.72;2.92;;;;;;;3.66;87.86;99763.50;1750215;79;25760;-87
2020/12/25 07:09:11;;;;;;;5.75;2.67;;;;;;;3.65;87.52;99767.83;1751829;79;25855;-86
2020/12/25 07:11:38;;;;;;;5.75;3.10;;;;;;;3.63;87.39;99772.34;1746790;80;26344;-88
2020/12/25 07:14:04;;;;;;;4.85;2.80;;;;;;;3.63;87.30;99775.38;1749310;80;25859;-88
2020/12/25 07:16:31;;;;;;;4.42;2.60;;;;;;;3.56;87.23;99768.17;1735681;80;26695;-88
2020/12/25 07:18:58;;;;;;;4.40;2.50;;;;;;;3.62;87.11;99784.09;1722462;80;25897;-89
2020/12/25 07:21:24;;;;;;;4.08;2.52;;;;;;;3.64;87.08;99787.36;1737637;79;26063;-87
2020/12/25 07:23:50;;;;;;;5.62;2.95;;;;;;;3.66;86.89;99789.34;1711139;81;25876;-88
2020/12/25 07:26:17;;;;;;;5.45;2.60;;;;;;;3.64;86.56;99790.76;1739575;81;26723;-87
2020/12/25 07:28:45;;;;;;;3.90;2.40;;;;;;;3.64;86.49;99798.52;1763770;79;25808;-89
2020/12/25 07:31:12;;;;;;;3.72;2.40;;;;;;;3.65;86.46;99804.48;1724420;81;25834;-88
2020/12/25 07:33:38;;;;;;;4.10;2.60;;;;;;;3.68;86.20;99811.97;1746226;80;25957;-88
2020/12/25 07:36:10;;;;;;;5.58;2.72;;;;;;;3.68;86.20;99811.97;1766186;80;25735;-87
2020/12/25 07:38:37;;;;;;;4.62;2.77;;;;;;;3.66;85.94;99816.48;1735363;80;25757;-88
2020/12/25 07:41:04;;;;;;;5.53;3.08;;;;;;;3.63;85.93;99810.26;1713313;81;25884;-88
2020/12/25 07:43:30;;;;;;;5.35;3.30;;;;;;;3.64;85.72;99815.79;1764634;79;25761;-88
2020/12/25 07:45:58;;;;;;;5.40;3.10;;;;;;;3.51;85.31;99799.23;1725283;81;25821;-88
2020/12/25 07:48:24;;;;;;;4.33;2.75;;;;;;;3.49;85.49;99808.42;1728815;81;26290;-87
2020/12/25 07:50:50;;;;;;;4.62;2.87;;;;;;;3.49;85.49;99808.42;1771088;80;26441;-87
2020/12/25 07:53:18;;;;;;;5.70;2.62;;;;;;;3.60;85.45;99823.00;1743722;80;25846;-86
2020/12/25 07:55:47;;;;;;;2.33;2.12;;;;;;;3.61;85.30;99831.08;1748284;81;25863;-88
2020/12/25 07:58:19;;;;;;;5.92;3.02;;;;;;;3.58;84.93;99831.83;1769848;78;26683;-87
2020/12/25 08:00:46;;;;;;;5.70;3.58;;;;;;;3.58;85.12;99839.11;1775815;78;25469;-88
2020/12/25 08:03:14;;;;;;;8.23;4.83;;;;;;;3.59;85.10;99840.72;1748901;80;25732;-88
2020/12/25 08:05:40;;;;;;;10.50;5.97;;;;;;;3.63;84.94;99847.28;1788652;79;26396;-87
2020/12/25 08:08:08;;;;;;;7.40;4.55;;;;;;;3.61;84.86;99851.75;1773769;78;25756;-88
2020/12/25 08:10:36;;;;;;;7.55;4.37;;;;;;;3.58;84.87;99847.34;1768881;79;25802;-87
2020/12/25 08:13:06;;;;;;;6.67;4.65;;;;;;;3.57;84.84;99854.24;1733426;78;25894;-88
2020/12/25 08:15:33;;;;;;;;;;;;;;;3.59;85.21;99856.23;1801193;78;25697;-87
2020/12/25 08:18:00;;;;;;;5.00;3.02;;;;;;;3.61;84.97;99856.11;1785893;78;25965;-88
2020/12/25 08:20:26;;;;;;;6.65;3.00;;;;;;;3.60;84.51;99863.50;1758820;79;25957;-88
2020/12/25 08:23:00;;;;;;;4.03;2.67;;;;;;;3.60;84.51;99863.50;1767260;79;26459;-88
2020/12/25 08:25:30;;;;;;;4.20;2.37;;;;;;;3.61;85.07;99860.80;1767790;80;25784;-88
2020/12/25 08:27:57;;;;;;;5.65;2.70;;;;;;;3.64;84.84;99868.28;1762676;79;25977;-87
2020/12/25 08:30:25;;;;;;;3.60;2.27;;;;;;;3.69;84.73;99875.16;1787988;78;25855;-87
2020/12/25 08:32:59;;;;;;;3.77;2.40;;;;;;;3.70;84.74;99878.56;1789475;78;25882;-88
2020/12/25 08:35:29;;;;;;;4.60;2.80;;;;;;;3.67;84.08;99891.75;1764526;81;25742;-88
2020/12/25 08:38:00;;;;;;;6.15;2.87;;;;;;;3.64;84.09;99890.72;1789295;79;25924;-88
2020/12/25 08:40:36;;;;;;;3.92;3.12;;;;;;;3.63;84.40;99890.36;1775272;78;26469;-88
2020/12/25 08:43:11;;;;;;;4.20;2.80;;;;;;;3.68;84.49;99885.63;1787462;78;25782;-88
2020/12/25 08:45:40;;;;;;;4.78;2.83;;;;;;;3.70;84.44;99897.95;1787044;78;25681;-87
2020/12/25 08:48:11;;;;;;;5.28;3.33;;;;;;;3.71;84.22;99899.56;1751754;79;25709;-87
2020/12/25 08:50:40;;;;;;;6.58;3.45;;;;;;;3.70;84.18;99901.34;1765727;78;25781;-88
2020/12/25 08:53:19;;;;;;;5.97;3.40;;;;;;;3.70;84.32;99893.59;1783579;78;25925;-88
2020/12/25 08:55:54;;;;;;;7.40;3.92;;;;;;;3.70;84.35;99894.87;1787370;78;25776;-88
2020/12/25 08:58:22;;;;;;;6.27;3.93;;;;;;;3.69;84.18;99894.55;1758296;79;25821;-87
2020/12/25 09:00:57;;;;;;;7.90;4.22;;;;;;;3.70;84.00;99908.28;1703380;82;26040;-88
2020/12/25 09:03:24;;;;;;;6.47;2.87;;;;;;;3.68;83.99;99904.55;1757712;80;25497;-88
2020/12/25 09:05:50;;;;;;;4.45;3.50;;;;;;;3.70;84.11;99902.63;1711143;80;25656;-88
2020/12/25 09:08:17;;;;;;;7.30;3.90;;;;;;;3.68;84.14;99898.09;1750357;80;25815;-87
2020/12/25 09:10:43;;;;;;;6.72;3.83;;;;;;;3.78;84.05;99912.31;1744566;80;25724;-88
2020/12/25 09:13:09;;;;;;;7.05;4.10;;;;;;;3.76;83.92;99908.59;1708065;82;25884;-87
2020/12/25 09:15:36;;;;;;;10.03;5.50;;;;;;;3.75;84.06;99908.23;1703621;82;25853;-87
2020/12/25 09:18:02;;;;;;;8.45;4.85;;;;;;;3.76;84.24;99915.50;1708311;82;26303;-86
2020/12/25 09:20:29;;;;;;;6.53;3.87;;;;;;;3.78;83.97;99911.83;1728087;80;25966;-85
2020/12/25 09:22:55;;;;;;;8.30;3.72;;;;;;;3.76;83.90;99918.92;1719608;81;25742;-87
2020/12/25 09:25:21;;;;;;;6.75;3.60;;;;;;;3.76;83.93;99911.17;1750542;79;25762;-86
2020/12/25 09:27:48;;;;;;;7.55;4.12;;;;;;;3.74;83.67;99923.40;1726790;80;26360;-87
2020/12/25 09:30:14;;;;;;;7.45;4.22;;;;;;;3.71;83.93;99925.41;1730330;80;26399;-86
2020/12/25 09:32:41;;;;;;;7.80;5.15;;;;;;;3.66;83.83;99920.66;1747525;80;25698;-88
2020/12/25 09:35:07;;;;;;;7.72;4.42;;;;;;;3.50;83.88;99903.53;1752983;80;25725;-87
2020/12/25 09:37:34;;;;;;;8.63;4.00;;;;;;;3.59;83.98;99925.99;1737292;80;26719;-87
2020/12/25 09:40:00;;;;;;;7.92;4.28;;;;;;;3.56;83.71;99931.42;1714401;81;25676;-87
2020/12/25 09:42:27;;;;;;;9.03;4.03;;;;;;;3.36;83.61;99912.45;1754985;79;25895;-86
2020/12/25 09:44:54;;;;;;;7.30;4.53;;;;;;;3.42;83.78;99926.14;1740491;80;26008;-87
2020/12/25 09:47:21;;;;;;;8.50;5.17;;;;;;;3.43;83.82;99943.27;1715691;82;25969;-87
2020/12/25 09:49:49;;;;;;;9.58;5.00;;;;;;;3.43;83.82;99943.27;1727396;80;44481;-86
2020/12/25 09:52:15;;;;;;;7.50;4.70;;;;;;;3.42;84.00;99939.53;1755099;80;25757;-87
2020/12/25 09:54:41;;;;;;;6.60;4.40;;;;;;;3.39;83.56;99942.38;1712354;81;26412;-87
2020/12/25 09:57:08;;;;;;;7.83;4.60;;;;;;;3.39;83.56;99942.38;1748607;79;26369;-86
2020/12/25 09:59:37;;;;;;;8.88;3.77;;;;;;;3.36;83.49;99948.63;1705770;82;25865;-87
2020/12/25 10:02:04;;;;;;;6.72;4.05;;;;;;;3.36;83.49;99948.63;1746352;80;25806;-87
2020/12/25 10:04:30;;;;;;;8.15;4.17;;;;;;;3.32;83.68;99946.75;1710856;82;25604;-87
2020/12/25 10:06:57;;;;;;;6.12;4.08;;;;;;;3.34;83.61;99947.92;1756503;79;25604;-85
2020/12/25 10:09:24;;;;;;;4.80;3.55;;;;;;;3.33;83.38;99952.28;1749418;79;25459;-86
2020/12/25 10:11:53;;;;;;;6.78;4.35;;;;;;;3.32;83.26;99954.50;1750237;79;26722;-88
2020/12/25 10:14:20;;;;;;;5.62;4.22;;;;;;;3.34;83.48;99957.77;1733935;80;26700;-86
2020/12/25 10:16:46;;;;;;;6.10;4.40;;;;;;;3.33;82.84;99953.56;1747259;79;25812;-86
2020/12/25 10:19:13;;;;;;;6.30;4.28;;;;;;;3.33;82.74;99965.67;1735965;80;26013;-87
2020/12/25 10:21:40;;;;;;;9.63;6.58;;;;;;;3.28;83.05;99954.42;1754044;79;25714;-88
2020/12/25 10:24:07;;;;;;;9.93;5.65;;;;;;;3.29;82.92;99953.94;1748183;80;25878;-87
2020/12/25 10:26:33;;;;;;;9.28;5.80;;;;;;;3.37;83.00;99966.22;1750809;80;25809;-86
2020/12/25 10:29:00;;;;;;;9.78;5.17;;;;;;;3.37;82.98;99964.45;1751863;80;25791;-86
2020/12/25 10:31:26;;;;;;;7.55;4.80;;;;;;;3.38;83.08;99965.27;1699791;82;25837;-86
2020/12/25 10:33:53;;;;;;;7.75;4.72;;;;;;;3.28;83.14;99942.80;1728471;82;25763;-87
2020/12/25 10:36:25;;;;;;;9.83;4.40;;;;;;;3.40;82.98;99963.37;1708422;82;25777;-86
2020/12/25 10:38:52;;;;;;;8.98;4.87;;;;;;;3.25;82.68;99949.52;1715045;81;25746;-87
2020/12/25 10:41:18;;;;;;;7.37;4.53;;;;;;;3.25;82.68;99949.52;1721346;83;25718;-87
2020/12/25 10:43:46;;;;;;;10.18;6.60;;;;;;;3.37;82.73;99967.52;1719059;81;26598;-87
2020/12/25 10:46:20;;;;;;;7.25;5.35;;;;;;;3.33;83.17;99960.02;1709609;82;25862;-86
2020/12/25 10:48:47;;;;;;;7.25;4.60;;;;;;;3.40;83.13;99968.06;1706174;82;26518;-87
2020/12/25 10:51:13;;;;;;;8.53;5.95;;;;;;;3.40;83.13;99968.06;1734584;80;25764;-86
2020/12/25 10:53:41;;;;;;;8.38;5.65;;;;;;;3.41;82.92;99967.14;1742548;79;25759;-87
2020/12/25 10:56:08;;;;;;;6.20;4.05;;;;;;;3.44;83.03;99976.40;1738841;80;25788;-88
2020/12/25 10:58:34;;;;;;;10.53;4.53;;;;;;;3.46;82.62;99969.31;1754328;80;25698;-86
2020/12/25 11:01:01;;;;;;;7.30;4.20;;;;;;;3.47;81.94;99978.24;1758230;81;25646;-86
2020/12/25 11:03:27;;;;;;;6.75;4.33;;;;;;;3.44;82.18;99977.20;1753836;81;25750;-86
2020/12/25 11:05:54;;;;;;;6.35;4.37;;;;;;;3.45;82.02;99979.31;1756925;81;25769;-86
2020/12/25 11:08:20;;;;;;;6.50;4.15;;;;;;;3.45;81.82;99983.19;1756157;81;25786;-86
2020/12/25 11:10:47;;;;;;;8.68;5.87;;;;;;;3.46;82.12;99980.94;1736303;81;25958;-86
2020/12/25 11:13:13;;;;;;;9.18;4.70;;;;;;;3.46;82.25;99973.19;1714930;81;26446;-87
2020/12/25 11:15:40;;;;;;;8.08;4.53;;;;;;;3.46;82.25;99973.19;1729071;81;26454;-87
2020/12/25 11:18:07;;;;;;;9.38;5.70;;;;;;;3.51;82.03;99977.02;1718556;81;25933;-87
2020/12/25 11:20:34;;;;;;;10.08;5.50;;;;;;;3.51;82.10;99974.91;1718241;81;26376;-87
2020/12/25 11:23:00;;;;;;;9.78;5.08;;;;;;;3.53;82.30;99976.91;1731019;81;26835;-87
2020/12/25 11:25:26;;;;;;;10.00;4.97;;;;;;;3.56;82.17;99982.62;1723292;81;25823;-85
2020/12/25 11:27:53;;;;;;;7.50;4.12;;;;;;;3.59;82.02;99974.28;1726385;81;25778;-87
2020/12/25 11:30:20;;;;;;;7.92;4.53;;;;;;;3.54;81.98;99981.92;1734696;81;25759;-86
2020/12/25 11:32:46;;;;;;;7.92;4.55;;;;;;;3.54;82.02;99983.22;1732981;81;26365;-87
2020/12/25 11:35:12;;;;;;;9.23;4.70;;;;;;;3.56;82.24;99986.98;1721995;81;25768;-88
2020/12/25 11:37:39;;;;;;;12.93;5.03;;;;;;;3.56;81.75;99983.91;1728100;81;25751;-86
2020/12/25 11:40:05;;;;;;;9.60;5.47;;;;;;;3.58;82.07;99977.34;1730528;81;25781;-87
2020/12/25 11:42:32;;;;;;;10.75;6.08;;;;;;;3.58;82.07;99977.34;1744786;80;25864;-87
2020/12/25 11:44:58;;;;;;;9.10;5.05;;;;;;;3.60;81.90;99983.66;1758096;81;26304;-87
2020/12/25 11:47:25;;;;;;;10.30;6.08;;;;;;;3.56;81.86;99980.52;1753594;80;25979;-87